SBCR/CMG METAR and TAF weather

Enter ICAO airport designator
Station Type Date Time Source
SBCR METAR 2024/07/24 12:00 UTC NOAA

SBCR 241200Z 08006KT 030V100 CAVOK 25/11 Q1017


Station Type Date Time Source
SBCR Decoded METAR 2024/07/24 12:00 UTC NOAA

Corumba, Brazil (SBCR) 19-05S 057-30W
Jul 24, 2024 - 08:00 AM EDT / 2024.07.24 1200 UTC
Wind: from the E (080 degrees) at 7 MPH (6 KT) (direction variable):0
Visibility: greater than 7 mile(s):0
Temperature: 77 F (25 C)
Dew Point: 51 F (11 C)
Relative Humidity: 41%
Pressure (altimeter): 30.03 in. Hg (1017 hPa)
ob: SBCR 241200Z 08006KT 030V100 CAVOK 25/11 Q1017
cycle: 12

Station Type Date Time Source
SBCR TAF 2024/07/24 12:03 UTC NOAA